Rachel, Nevada Weather observations

Data are for observation ending at time listed.
 Day   Time    Ave.   Ave.  Ave.  Vector   Max.   Stn.    Total    Solar   Ave.  
  of    of     Air    Rel.  Wind   Wind    Wind   Baro.  Precip.   Rad.    Soil  
Year   Day     Temp.  Hum.  Speed  Dir.    Gust   Pres.                    Temp. 
2019   (PST)    F      %     mph   deg.    mph     mb.     in.     W/m2     F   
------------------------------------------------------------------------------
 202   10:30   89.9    11    3.6   292      8.9   855.2    0.00     707    95.3
 202   10:40   89.8    11    3.6   239     10.1   855.6    0.00     714    94.1
 202   10:50   89.6    11    5.4   177     17.5   855.9    0.00     722    93.8
 202   11:00   90.2    11    6.0   128     14.8   855.7    0.00     729    93.3
 202   11:10   92.1    10   10.4   134     16.2   855.2    0.00     735    93.2
 202   11:20   91.4    10    5.9   122     12.3   855.0    0.00     739    93.0
 202   11:30   90.7    10   11.4   160     21.0   855.5    0.00     743    93.4
 202   11:40   90.2    10    9.1   181     16.1   855.5    0.00     747    93.3
 202   11:50   90.9    10    8.1   184     19.1   855.4    0.00     747    93.0
 202   12:00   91.4    10   13.5   160     20.8   855.4    0.00     747    93.1
 202   12:10   90.5    10    9.0   133     18.6   855.3    0.00     747    92.7
 202   12:20   91.7    10   11.5   135     20.6   855.2    0.00     743    92.4
 202   12:30   91.5    10   10.0   146     24.2   855.2    0.00     740    92.6
 202   12:40   92.2    10   11.9   184     30.8   855.2    0.00     733    92.0
 202   12:50   91.7    10    9.3   182     15.6   855.2    0.00     730    91.8
 202   13:00   92.9     9   12.5   205     23.5   855.1    0.00     726    91.8
 202   13:10   92.7     9   11.1   169     19.3   854.9    0.00     719    91.8
 202   13:20   92.9    10    6.4   162     21.8   854.5    0.00     709    91.8
 202   13:30   93.1    10    9.4   171     17.1   855.2    0.00     700    92.1
 202   13:40   93.6     9    6.3   250     14.5   854.0    0.00     689    91.6
 202   13:50   95.6     8   10.4   258     17.0   855.2    0.00     679    91.6
 202   14:00   95.6     8    7.7   250     16.9   853.8    0.00     664    91.7
 202   14:10   95.9     8    7.7   262     22.5   855.3    0.00     648    91.7
 202   14:20   95.6     8   12.8   238     21.9   855.1    0.00     634    91.9
 202   14:30   95.6     8    9.9   240     18.4   854.1    0.00     621    91.8
 202   14:40   96.0     8   14.1   248     22.6   854.5    0.00     603    91.8
 202   14:50   95.8     8   14.3   252     22.3   854.4    0.00     583    91.8
 202   15:00   95.3     8   13.0   229     22.0   854.3    0.00     564    91.6
 202   15:10   94.9     8   11.3   226     20.9   854.2    0.00     544    91.5
 202   15:20   95.8     8   13.6   247     24.3   854.1    0.00     524    91.5
 202   15:30   96.0     8   16.1   246     26.0   854.0    0.00     503    91.6
 202   15:40   95.0     8   14.3   221     22.1   854.0    0.00     481    91.5
 202   15:50   95.3     8   14.4   246     27.4   853.9    0.00     458    91.5
 202   16:00   95.4     8   15.8   240     28.9   853.8    0.00     434    91.4
 202   16:10   95.3     8   12.9   241     22.2   853.9    0.00     409    91.2
 202   16:20   95.0     9   12.4   237     21.9   853.8    0.00     385    91.0
 202   16:30   95.1     9   12.3   239     21.9   853.8    0.00     360    90.9
 202   16:40   95.0     9    9.9   223     20.8   853.7    0.00     335    90.7
 202   16:50   94.8     9   11.7   226     20.4   853.5    0.00     310    90.6
 202   17:00   94.4     9   14.7   220     22.4   853.4    0.00     286    90.4
 202   17:10   93.9     9   13.0   217     19.4   853.3    0.00     261    90.3
 202   17:20   94.4     9   11.0   227     19.7   853.3    0.00     235    90.2
 202   17:30   93.9     9   12.3   230     19.9   853.3    0.00     210    90.1
 202   17:40   93.4    10   11.0   232     17.0   853.2    0.00     186    90.1
 202   17:50   92.9    10   13.3   224     19.9   853.2    0.00     162    89.9
 202   18:00   92.6    10   12.2   224     20.5   853.2    0.00     139    89.7
 202   18:10   92.4    10   12.8   222     19.2   853.2    0.00     117    89.5
 202   18:20   92.0    10   11.3   223     17.8   853.2    0.00      94    89.3
 202   18:30   91.0    11   10.1   228     20.2   853.2    0.00      67    89.0
 202   18:40   90.8    10   11.7   225     19.4   853.1    0.00      41    88.7
 202   18:50   90.0    11   11.9   226     18.9   853.3    0.00      25    88.5
 202   19:00   89.1    11   10.2   229     17.1   853.7    0.00      11    88.1
 202   19:10   87.8    11    9.6   225     16.4   854.0    0.00       4    87.8
 202   19:20   87.3    12    9.3   224     14.2   854.1    0.00       3    87.5
 202   19:30   86.9    12    9.7   220     14.3   854.0    0.00       1    87.2
 202   19:40   86.4    12    9.9   220     14.5   853.5    0.00       0    86.8
 202   19:50   85.5    12    8.7   210     12.1   853.0    0.00       0    86.5
 202   20:00   83.9    12    8.1   198     10.6   852.7    0.00       0    86.2
 202   20:10   83.7    13    7.9   204      9.9   853.0    0.00       0    85.9
 202   20:20   82.7    13    6.4   200      8.2   852.9    0.00       0    85.6
 202   20:30   81.4    14    6.5   178      8.2   852.8    0.00       0    85.2
 202   20:40   81.0    14    6.7   167      7.8   852.8    0.00       0    84.6
 202   20:50   80.8    14    6.9   198     11.2   853.0    0.00       0    84.4
 202   21:00   81.8    14    7.1   184     10.2   853.0    0.00       0    84.2
 202   21:10   80.7    14    7.9   169      9.3   852.9    0.00       0    83.6
 202   21:20   80.7    14    8.0   169     10.8   853.0    0.00       0    83.4
 202   21:30   80.7    14    8.3   162     11.0   853.1    0.00       0    83.2
 202   21:40   80.0    15    8.5   159     10.1   853.1    0.00       0    82.8
 202   21:50   78.3    16    6.7   160      9.1   853.5    0.00       0    82.3
 202   22:00   78.0    16    7.4   177      9.6   853.2    0.00       0    82.4
 202   22:10   79.1    16    4.9   180      8.0   852.9    0.00       0    82.3
 202   22:20   78.7    16    4.7   200      8.4   853.0    0.00       0    82.3
 202   22:30   77.6    17    2.8   297      4.8   853.4    0.00       0    82.1
 202   22:40   78.1    16    4.4   306      6.1   854.0    0.00       0    81.9
 202   22:50   76.3    17    5.0   341      7.5   854.1    0.00       0    81.4
 202   23:00   72.5    20    7.8    58     14.5   854.5    0.00       0    80.5
 202   23:10   72.8    19   12.8    49     21.5   854.5    0.00       0    80.0
 202   23:20   73.4    18    7.4    56     14.5   853.8    0.00       0    79.7
 202   23:30   74.2    18    4.8    57      8.8   853.5    0.00       0    79.7
 202   23:40   74.2    18    4.3    40      6.1   853.8    0.00       0    79.7
 202   23:50   71.7    20    4.9    74      7.7   853.9    0.00       0    79.3
 203    0:00   69.7    21    6.8    88      9.1   853.3    0.00       0    78.8
 203    0:10   70.6    20    4.7    82      6.7   853.0    0.00       0    78.7
 203    0:20   71.5    20    3.5   127      5.3   852.7    0.00       0    78.6
 203    0:30   68.7    21    2.5   293      7.1   852.8    0.00       0    78.5
 203    0:40   66.3    24    4.3   254      7.6   852.5    0.00       0    78.1
 203    0:50   66.3    24    2.5   291      6.2   853.0    0.00       0    77.7
 203    1:00   65.4    24    1.9    34      4.2   852.9    0.00       0    77.2
 203    1:10   65.7    23    3.1    78      4.3   852.4    0.00       0    76.7
 203    1:20   66.1    23    2.4   171      6.7   852.2    0.00       0    76.5
 203    1:30   65.5    24    1.8   308      3.7   852.1    0.00       0    76.5
 203    1:40   65.2    25    3.2   188      8.3   852.2    0.00       0    76.3
 203    1:50   66.0    24    3.8   215      9.0   852.2    0.00       0    76.3
 203    2:00   64.3    26    2.1   290      5.6   852.2    0.00       0    76.0
 203    2:10   63.7    26    2.9   205      9.5   852.2    0.00       0    75.6
 203    2:20   64.4    26    2.6   236     11.6   852.3    0.00       0    75.3
 203    2:30   63.7    26    1.9   262      6.1   852.3    0.00       0    75.3
 203    2:40   62.2    27    2.6   214      8.5   852.3    0.00       0    74.9
 203    2:50   61.5    28    2.8   244      7.6   852.2    0.00       0    74.6
 203    3:00   61.5    29    2.2   316      3.7   852.2    0.00       0    74.4
 203    3:10   60.8    28    3.1   324      5.4   852.3    0.00       0    74.0
 203    3:20   60.3    28    2.9    15      7.1   852.3    0.00       0    73.6
 203    3:30   60.3    28    3.2   117      6.1   852.5    0.00       0    73.3
 203    3:40   59.6    28    1.7   192      6.4   852.9    0.00       0    73.1
 203    3:50   59.4    28    3.4   140      9.2   852.9    0.00       0    72.7
 203    4:00   61.2    27    3.9   120      6.1   852.9    0.00       0    72.3
 203    4:10   61.0    27    3.5   114      5.4   852.9    0.00       0    72.0
 203    4:20   62.1    26    3.5    90      5.2   852.7    0.00       0    71.8
 203    4:30   62.9    26    4.0    66      6.1   852.8    0.00       0    71.9
 203    4:40   61.7    27    2.5   174      4.2   853.0    0.00       2    72.1
 203    4:50   59.4    29    1.5     1      3.0   853.1    0.00       3    72.2
 203    5:00   59.1    29    2.2    14      3.5   853.2    0.00       5    71.9
 203    5:10   59.6    29    0.5   131      2.3   853.1    0.00      23    71.8
 203    5:20   60.5    27    0.7   254      2.3   853.1    0.00      44    72.6
 203    5:30   61.7    27    0.7   302      3.1   853.2    0.00      70    73.2
 203    5:40   62.6    25    2.0    20      3.1   853.4    0.00      96    73.8
 203    5:50   63.6    25    1.0     8      2.0   853.6    0.00     109    74.3
 203    6:00   63.6    26    0.8   324      1.8   854.0    0.00     142    75.0
 203    6:10   65.2    24    0.7   276      2.6   854.0    0.00     170    75.9
 203    6:20   66.2    24    0.9   282      2.9   854.1    0.00     196    76.9
 203    6:30   66.8    23    1.0   332      1.9   854.5    0.00     222    77.5
 203    6:40   68.1    22    1.4   359      2.6   854.9    0.00     249    77.8
 203    6:50   69.6    21    1.6    53      2.8   854.9    0.00     276    78.5
 203    7:00   70.8    20    1.8    84      3.8   855.1    0.00     303    79.4
 203    7:10   71.9    20    2.3    82      4.1   855.9    0.00     330    80.2
 203    7:20   74.0    18    2.1    82      4.0   856.0    0.00     356    81.1
 203    7:30   75.2    18    2.6    51      4.7   856.8    0.00     381    81.1
 203    7:40   76.5    17    2.3    47      4.3   856.7    0.00     405    80.4
 203    7:50   77.2    16    2.5    19      4.5   856.0    0.00     428    80.2
 203    8:00   77.2    16    2.8    15      4.7   857.2    0.00     451    80.6
 203    8:10   78.9    16    2.0    24      4.8   857.5    0.00     472    81.8
 203    8:20   80.8    14    1.4    40      3.6   857.2    0.00     491    83.1
 203    8:30   81.4    14    1.8   321      4.0   856.5    0.00     510    84.3
 203    8:40   82.9    14    1.4   290      3.1   856.9    0.00     530    85.4
 203    8:50   83.9    13    1.8   355      4.2   857.1    0.00     549    86.1
 203    9:00   85.5    13    2.0     1      4.9   857.9    0.00     569    87.0
 203    9:10   86.6    13    1.8    24      4.2   858.0    0.00     586    88.6
 203    9:20   89.0    12    1.7     9      5.1   857.3    0.00     602    89.6
 203    9:30   89.4    12    1.9     9      4.5   857.7    0.00     617    90.8
 203    9:40   91.1    12    1.9     2      5.2   857.7    0.00     633    91.9
 203    9:50   91.8    12    3.7   319      7.2   858.1    0.00     646    92.9
 203   10:00   91.1    12    3.8   322      6.7   857.8    0.00     662    93.5
 203   10:10   92.0    12    6.6   270     13.0   857.5    0.00     673    94.0
 203   10:20   92.9    11   11.2   220     20.6   857.4    0.00     688    95.0

Return to St. George, Utah graphs page.


Western Regional Climate Center,wrcc@dri.edu